createdAt,value
2018-07-10T00:01:22.772Z,2.60
2018-07-10T00:06:30.211Z,3.00
2018-07-10T00:08:57.183Z,3.40
2018-07-10T00:11:24.176Z,3.07
2018-07-10T00:13:51.389Z,3.00
2018-07-10T00:16:18.385Z,3.20
2018-07-10T00:18:45.384Z,2.73
2018-07-10T00:21:14.868Z,3.20
2018-07-10T00:23:40.807Z,2.90
2018-07-10T00:26:08.744Z,2.77
2018-07-10T00:28:35.831Z,2.50
2018-07-10T00:31:02.839Z,2.47
2018-07-10T00:33:30.796Z,2.93
2018-07-10T00:35:57.846Z,3.10
2018-07-10T00:38:36.599Z,2.70
2018-07-10T00:41:04.594Z,3.10
2018-07-10T00:43:31.589Z,2.50
2018-07-10T00:45:59.556Z,3.10
2018-07-10T00:48:27.458Z,2.93
2018-07-10T00:50:54.463Z,2.70
2018-07-10T00:53:21.455Z,3.20
2018-07-10T00:55:48.495Z,3.03
2018-07-10T00:58:15.509Z,3.17
2018-07-10T01:00:42.518Z,3.10
2018-07-10T01:03:09.596Z,3.00
2018-07-10T01:05:36.594Z,2.90
2018-07-10T01:10:44.176Z,3.80
2018-07-10T01:13:11.258Z,3.83
2018-07-10T01:15:38.251Z,4.13
2018-07-10T01:18:06.179Z,3.83
2018-07-10T01:20:33.193Z,3.50
2018-07-10T01:23:01.446Z,3.90
2018-07-10T01:25:28.492Z,3.77
2018-07-10T01:27:55.479Z,4.07
2018-07-10T01:30:22.499Z,3.23
2018-07-10T01:32:49.544Z,3.40
2018-07-10T01:35:16.537Z,3.77
2018-07-10T01:37:43.533Z,3.10
2018-07-10T01:40:10.571Z,3.40
2018-07-10T01:42:37.657Z,4.27
2018-07-10T01:45:04.676Z,3.80
2018-07-10T01:47:31.735Z,4.00
2018-07-10T01:49:58.741Z,3.90
2018-07-10T01:52:26.616Z,2.90
2018-07-10T01:54:53.750Z,3.60
2018-07-10T01:57:20.752Z,3.33
2018-07-10T01:59:47.753Z,3.17
2018-07-10T02:02:15.669Z,3.57
2018-07-10T02:04:42.672Z,3.47
2018-07-10T02:07:09.775Z,3.37
2018-07-10T02:09:36.816Z,2.93
2018-07-10T02:12:03.832Z,3.63
2018-07-10T02:14:31.567Z,3.33
2018-07-10T02:16:58.700Z,3.00
2018-07-10T02:22:04.251Z,3.65
2018-07-10T02:24:31.242Z,3.50
2018-07-10T02:26:58.345Z,3.07
2018-07-10T02:29:25.384Z,3.27
2018-07-10T02:31:52.391Z,3.13
2018-07-10T02:34:19.393Z,3.70
2018-07-10T02:36:46.440Z,3.27
2018-07-10T02:39:13.436Z,3.57
2018-07-10T02:41:40.453Z,3.10
2018-07-10T02:44:08.353Z,3.00
2018-07-10T02:46:35.349Z,3.50
2018-07-10T02:49:02.350Z,2.87
2018-07-10T02:51:29.405Z,3.07
2018-07-10T02:53:56.392Z,3.07
2018-07-10T02:56:23.474Z,3.07
2018-07-10T02:58:50.546Z,3.00
2018-07-10T03:01:17.538Z,2.93
2018-07-10T03:03:45.567Z,3.50
2018-07-10T03:06:12.607Z,3.50
2018-07-10T03:08:39.620Z,3.40
2018-07-10T03:13:47.132Z,4.15
2018-07-10T03:16:14.147Z,3.90
2018-07-10T03:18:41.149Z,3.70
2018-07-10T03:21:08.227Z,3.67
2018-07-10T03:23:36.178Z,3.40
2018-07-10T03:26:03.177Z,3.93
2018-07-10T03:28:30.228Z,3.93
2018-07-10T03:30:57.225Z,4.20
2018-07-10T03:33:24.226Z,3.80
2018-07-10T03:35:51.296Z,3.57
2018-07-10T03:38:18.296Z,3.87
2018-07-10T03:40:45.298Z,3.57
2018-07-10T03:43:12.344Z,4.40
2018-07-10T03:45:39.333Z,3.30
2018-07-10T03:48:06.334Z,3.30
2018-07-10T03:50:34.119Z,4.20
2018-07-10T03:53:01.114Z,3.60
2018-07-10T03:55:28.109Z,3.90
2018-07-10T03:57:55.155Z,4.30
2018-07-10T04:00:22.234Z,5.17
2018-07-10T04:02:49.247Z,4.80
2018-07-10T04:07:54.954Z,4.55
2018-07-10T04:10:22.021Z,3.97
2018-07-10T04:12:49.033Z,3.80
2018-07-10T04:15:16.024Z,3.80
2018-07-10T04:17:43.071Z,4.00
2018-07-10T04:20:10.064Z,4.23
2018-07-10T04:22:37.057Z,4.00
2018-07-10T04:25:05.974Z,4.63
2018-07-10T04:27:32.978Z,4.87
2018-07-10T04:29:59.977Z,4.50
2018-07-10T04:32:27.017Z,4.20
2018-07-10T04:34:54.863Z,5.00
2018-07-10T04:37:21.857Z,4.40
2018-07-10T04:39:48.926Z,4.50
2018-07-10T04:42:15.969Z,4.70
2018-07-10T04:44:42.911Z,4.50
2018-07-10T04:47:09.944Z,4.50
2018-07-10T04:49:37.407Z,4.67
2018-07-10T04:52:04.401Z,4.53
2018-07-10T04:54:31.564Z,4.87
2018-07-10T04:56:59.509Z,4.80
2018-07-10T04:59:26.595Z,5.00
2018-07-10T05:01:54.541Z,5.10
2018-07-10T05:04:21.540Z,4.57
2018-07-10T05:09:30.900Z,5.25
2018-07-10T05:11:58.680Z,5.00
2018-07-10T05:14:27.167Z,4.50
2018-07-10T05:16:54.333Z,5.10
2018-07-10T05:19:21.342Z,4.63
2018-07-10T05:21:49.153Z,4.57
2018-07-10T05:24:16.237Z,4.80
2018-07-10T05:26:43.249Z,4.37
2018-07-10T05:29:10.309Z,4.50
2018-07-10T05:31:37.804Z,4.50
2018-07-10T05:34:04.818Z,4.40
2018-07-10T05:36:32.417Z,5.27
2018-07-10T05:38:59.473Z,5.10
2018-07-10T05:41:26.491Z,4.87
2018-07-10T05:43:53.848Z,4.40
2018-07-10T05:46:20.931Z,4.27
2018-07-10T05:48:47.946Z,4.63
2018-07-10T05:51:15.881Z,4.63
2018-07-10T05:53:43.023Z,4.63
2018-07-10T05:56:11.093Z,4.53
2018-07-10T05:58:39.982Z,4.53
2018-07-10T06:01:06.969Z,4.60
2018-07-10T06:03:33.937Z,4.63
2018-07-10T06:06:00.942Z,4.70
2018-07-10T06:11:06.594Z,4.82
2018-07-10T06:13:34.571Z,5.50
2018-07-10T06:16:02.562Z,4.80
2018-07-10T06:18:29.595Z,5.10
2018-07-10T06:20:56.644Z,4.90
2018-07-10T06:23:23.648Z,5.50
2018-07-10T06:25:50.670Z,4.77
2018-07-10T06:28:18.114Z,5.60
2018-07-10T06:30:45.130Z,4.70
2018-07-10T06:33:13.109Z,5.33
2018-07-10T06:35:40.159Z,5.43
2018-07-10T06:38:07.171Z,5.20
2018-07-10T06:40:34.193Z,5.20
2018-07-10T06:43:01.274Z,4.70
2018-07-10T06:45:28.296Z,5.47
2018-07-10T06:47:55.311Z,5.33
2018-07-10T06:50:22.533Z,5.40
2018-07-10T06:52:50.488Z,5.53
2018-07-10T06:55:17.361Z,5.60
2018-07-10T06:57:44.408Z,5.77
2018-07-10T07:00:11.411Z,5.80
2018-07-10T07:05:14.033Z,5.50
2018-07-10T07:07:41.196Z,5.57
2018-07-10T07:10:08.144Z,4.30
2018-07-10T07:12:35.187Z,4.47
2018-07-10T07:15:03.146Z,5.00
2018-07-10T07:17:30.144Z,4.93
2018-07-10T07:19:57.266Z,4.63
2018-07-10T07:22:24.249Z,4.50
2018-07-10T07:24:52.141Z,5.07
2018-07-10T07:27:20.155Z,4.60
2018-07-10T07:29:47.168Z,4.20
2018-07-10T07:32:14.179Z,4.10
2018-07-10T07:34:41.239Z,3.67
2018-07-10T07:37:09.248Z,4.00
2018-07-10T07:39:36.278Z,4.00
2018-07-10T07:42:03.360Z,3.73
2018-07-10T07:44:31.231Z,3.00
2018-07-10T07:46:59.105Z,3.33
2018-07-10T07:49:26.152Z,3.23
2018-07-10T07:51:53.171Z,3.00
2018-07-10T07:54:20.188Z,3.63
2018-07-10T07:56:49.580Z,3.57
2018-07-10T07:59:16.657Z,3.87
2018-07-10T08:01:43.671Z,3.90
2018-07-10T08:04:10.765Z,3.80
2018-07-10T08:06:38.327Z,3.50
2018-07-10T08:11:44.815Z,4.65
2018-07-10T08:14:11.813Z,4.57
2018-07-10T08:16:38.826Z,3.47
2018-07-10T08:19:05.974Z,3.70
2018-07-10T08:21:33.764Z,3.10
2018-07-10T08:24:00.872Z,3.70
2018-07-10T08:26:27.924Z,3.43
2018-07-10T08:28:55.890Z,3.37
2018-07-10T08:31:22.909Z,4.10
2018-07-10T08:33:49.994Z,3.40
2018-07-10T08:36:18.082Z,3.83
2018-07-10T08:38:45.109Z,4.03
2018-07-10T08:41:12.163Z,4.30
2018-07-10T08:43:39.170Z,4.13
2018-07-10T08:46:06.191Z,4.63
2018-07-10T08:48:33.263Z,3.53
2018-07-10T08:51:00.262Z,3.27
2018-07-10T08:53:27.263Z,3.13
2018-07-10T08:55:55.115Z,3.00
2018-07-10T08:58:22.204Z,2.70
2018-07-10T09:00:49.834Z,3.30
2018-07-10T09:03:16.570Z,3.40
2018-07-10T09:05:43.612Z,3.00
2018-07-10T09:08:10.615Z,3.30
2018-07-10T09:10:37.676Z,2.97
2018-07-10T09:13:04.678Z,3.27
2018-07-10T09:15:32.366Z,2.87
2018-07-10T09:20:38.928Z,3.17
2018-07-10T09:23:05.981Z,2.97
2018-07-10T09:25:32.983Z,3.07
2018-07-10T09:28:00.102Z,2.67
2018-07-10T09:30:27.696Z,3.10
2018-07-10T09:32:54.712Z,3.20
2018-07-10T09:35:21.725Z,3.03
2018-07-10T09:37:48.919Z,3.17
2018-07-10T09:40:16.284Z,3.20
2018-07-10T09:42:42.962Z,3.70
2018-07-10T09:45:10.766Z,3.53
2018-07-10T09:47:37.770Z,3.00
2018-07-10T09:50:05.673Z,3.47
2018-07-10T09:52:32.776Z,3.27
2018-07-10T09:55:00.890Z,3.20
2018-07-10T09:57:27.804Z,3.20
2018-07-10T09:59:54.862Z,3.10
2018-07-10T10:02:21.875Z,3.50
2018-07-10T10:04:48.918Z,3.33
2018-07-10T10:07:15.995Z,3.23
2018-07-10T10:09:43.559Z,3.10
2018-07-10T10:12:10.583Z,3.60
2018-07-10T10:14:38.458Z,3.73
2018-07-10T10:17:05.468Z,3.10
2018-07-10T10:22:10.474Z,3.63
2018-07-10T10:24:37.498Z,3.93
2018-07-10T10:27:04.532Z,3.10
2018-07-10T10:29:31.593Z,3.50
2018-07-10T10:31:58.693Z,3.10
2018-07-10T10:34:25.700Z,2.90
2018-07-10T10:36:53.723Z,3.03
2018-07-10T10:39:20.726Z,3.03
2018-07-10T10:41:47.743Z,3.50
2018-07-10T10:44:14.822Z,2.93
2018-07-10T10:46:41.826Z,2.70
2018-07-10T10:51:49.982Z,3.10
2018-07-10T10:54:16.990Z,2.90
2018-07-10T10:56:44.015Z,2.53
2018-07-10T10:59:11.095Z,2.80
2018-07-10T11:01:38.102Z,3.10
2018-07-10T11:04:05.113Z,3.00
2018-07-10T11:06:32.170Z,2.77
2018-07-10T11:08:59.194Z,2.97
2018-07-10T11:11:26.210Z,2.87
2018-07-10T11:13:53.296Z,3.03
2018-07-10T11:16:20.308Z,3.30
2018-07-10T11:18:47.448Z,3.07
2018-07-10T11:21:14.506Z,3.23
2018-07-10T11:23:43.634Z,3.60
2018-07-10T11:26:09.584Z,3.40
2018-07-10T11:28:36.643Z,3.83
2018-07-10T11:33:42.428Z,3.33
2018-07-10T11:36:09.452Z,3.00
2018-07-10T11:38:36.455Z,3.60
2018-07-10T11:41:03.505Z,3.03
2018-07-10T11:43:30.520Z,3.53
2018-07-10T11:45:57.548Z,3.20
2018-07-10T11:48:24.650Z,3.50
2018-07-10T11:50:51.657Z,3.80
2018-07-10T11:53:20.204Z,3.60
2018-07-10T11:55:48.194Z,4.30
2018-07-10T11:58:15.226Z,3.03
2018-07-10T12:00:42.253Z,3.00
2018-07-10T12:03:09.332Z,3.17
2018-07-10T12:05:36.347Z,2.93
2018-07-10T12:08:04.219Z,3.47
2018-07-10T12:10:31.293Z,3.60
2018-07-10T12:12:58.304Z,3.50
2018-07-10T12:15:25.337Z,4.27
2018-07-10T12:17:52.434Z,4.27
2018-07-10T12:20:19.459Z,4.90
2018-07-10T12:22:46.464Z,4.37
2018-07-10T12:27:54.042Z,4.50
2018-07-10T12:30:21.094Z,4.67
2018-07-10T12:32:48.101Z,3.93
2018-07-10T12:35:15.124Z,3.77
2018-07-10T12:37:42.173Z,3.47
2018-07-10T12:40:09.193Z,3.63
2018-07-10T12:42:36.938Z,3.67
2018-07-10T12:45:04.032Z,3.27
2018-07-10T12:47:31.060Z,3.63
2018-07-10T12:49:58.084Z,3.20
2018-07-10T12:52:25.131Z,3.23
2018-07-10T12:54:52.139Z,3.43
2018-07-10T12:57:19.981Z,3.30
2018-07-10T12:59:47.876Z,3.83
2018-07-10T13:02:14.871Z,3.57
2018-07-10T13:04:41.904Z,3.40
2018-07-10T13:09:47.936Z,3.30
2018-07-10T13:12:15.022Z,3.00
2018-07-10T13:14:42.034Z,3.50
2018-07-10T13:17:09.029Z,3.50
2018-07-10T13:19:36.085Z,3.10
2018-07-10T13:22:04.098Z,3.17
2018-07-10T13:24:32.533Z,2.93
2018-07-10T13:26:59.639Z,3.70
2018-07-10T13:29:26.652Z,3.30
2018-07-10T13:31:53.670Z,3.23
2018-07-10T13:34:20.744Z,3.27
2018-07-10T13:36:47.773Z,3.47
2018-07-10T13:39:14.791Z,3.37
2018-07-10T13:41:41.822Z,3.77
2018-07-10T13:44:09.788Z,3.20
2018-07-10T13:46:37.660Z,3.20
2018-07-10T13:49:04.749Z,3.27
2018-07-10T13:51:32.725Z,3.33
2018-07-10T13:53:59.741Z,3.83
2018-07-10T13:56:26.837Z,3.63
2018-07-10T13:58:53.832Z,3.80
2018-07-10T14:01:20.831Z,3.17
2018-07-10T14:03:47.933Z,3.47
2018-07-10T14:06:14.951Z,3.80
2018-07-10T14:11:22.523Z,3.10
2018-07-10T14:13:49.527Z,3.53
2018-07-10T14:16:16.534Z,3.77
2018-07-10T14:18:43.643Z,3.63
2018-07-10T14:21:10.660Z,3.33
2018-07-10T14:23:38.496Z,3.13
2018-07-10T14:26:05.538Z,3.00
2018-07-10T14:28:33.500Z,3.30
2018-07-10T14:31:00.593Z,3.17
2018-07-10T14:36:05.783Z,3.50
2018-07-10T14:38:32.846Z,3.40
2018-07-10T14:40:59.944Z,3.33
2018-07-10T14:43:27.867Z,3.60
2018-07-10T14:45:55.015Z,3.53
2018-07-10T14:48:22.048Z,3.33
2018-07-10T14:53:27.797Z,3.47
2018-07-10T14:55:54.796Z,3.07
2018-07-10T14:58:22.634Z,3.30
2018-07-10T15:00:49.719Z,3.50
2018-07-10T15:03:16.731Z,3.40
2018-07-10T15:05:43.750Z,3.63
2018-07-10T15:08:11.882Z,3.13
2018-07-10T15:10:38.876Z,3.37
2018-07-10T15:13:05.892Z,3.40
2018-07-10T15:15:32.980Z,3.23
2018-07-10T15:18:00.855Z,3.50
2018-07-10T15:20:27.865Z,3.53
2018-07-10T15:22:55.053Z,3.87
2018-07-10T15:25:22.074Z,4.27
2018-07-10T15:27:49.117Z,5.53
2018-07-10T15:30:16.178Z,4.00
2018-07-10T15:32:43.230Z,3.57
2018-07-10T15:35:10.246Z,4.00
2018-07-10T15:37:38.286Z,3.77
2018-07-10T15:40:05.315Z,3.43
2018-07-10T15:42:33.181Z,3.60
2018-07-10T15:45:01.215Z,4.03
2018-07-10T15:47:28.233Z,3.83
2018-07-10T15:49:56.180Z,4.00
2018-07-10T15:52:23.277Z,4.13
2018-07-10T15:54:50.283Z,4.07
2018-07-10T15:57:18.102Z,3.40
2018-07-10T16:02:24.669Z,3.72
2018-07-10T16:04:52.605Z,3.73
2018-07-10T16:07:20.559Z,4.07
2018-07-10T16:09:47.565Z,3.43
2018-07-10T16:12:14.641Z,4.00
2018-07-10T16:14:42.479Z,3.93
2018-07-10T16:17:09.481Z,3.50
2018-07-10T16:19:36.558Z,3.90
2018-07-10T16:22:03.563Z,2.93
2018-07-10T16:24:30.559Z,3.00
2018-07-10T16:26:57.629Z,4.17
2018-07-10T16:29:24.642Z,3.20
2018-07-10T16:31:51.645Z,3.33
2018-07-10T16:34:18.721Z,3.53
2018-07-10T16:36:45.728Z,3.60
2018-07-10T16:39:12.743Z,3.27
2018-07-10T16:41:39.804Z,3.43
2018-07-10T16:44:06.816Z,3.60
2018-07-10T16:46:33.822Z,3.60
2018-07-10T16:49:00.908Z,3.50
2018-07-10T16:51:28.779Z,3.37
2018-07-10T16:53:55.788Z,3.90
2018-07-10T16:56:22.934Z,3.40
2018-07-10T16:58:50.043Z,3.20
2018-07-10T17:03:55.059Z,3.28
2018-07-10T17:06:22.080Z,3.60
2018-07-10T17:08:50.700Z,3.23
2018-07-10T17:11:17.750Z,3.50
2018-07-10T17:13:45.694Z,3.50
2018-07-10T17:16:12.709Z,2.97
2018-07-10T17:18:39.788Z,3.87
2018-07-10T17:21:06.796Z,3.37
2018-07-10T17:23:33.789Z,3.53
2018-07-10T17:26:00.925Z,3.40
2018-07-10T17:28:29.988Z,3.80
2018-07-10T17:30:56.929Z,3.20
2018-07-10T17:36:04.980Z,3.87
2018-07-10T17:38:32.024Z,3.50
2018-07-10T17:40:59.018Z,3.30
2018-07-10T17:43:26.018Z,3.33
2018-07-10T17:45:53.088Z,3.60
2018-07-10T17:48:20.092Z,3.30
2018-07-10T17:50:47.239Z,3.33
2018-07-10T17:53:14.303Z,3.23
2018-07-10T17:55:41.330Z,3.03
2018-07-10T17:58:08.453Z,3.30
2018-07-10T18:00:35.639Z,3.37
2018-07-10T18:03:02.693Z,3.27
2018-07-10T18:05:29.745Z,3.00
2018-07-10T18:08:01.807Z,3.33
2018-07-10T18:10:28.248Z,3.07
2018-07-10T18:12:56.850Z,3.10
2018-07-10T18:15:24.609Z,3.60
2018-07-10T18:17:51.681Z,3.03
2018-07-10T18:20:18.774Z,4.20
2018-07-10T18:25:24.353Z,3.83
2018-07-10T18:27:51.607Z,3.57
2018-07-10T18:32:57.286Z,3.90
2018-07-10T18:40:50.579Z,4.07
2018-07-10T18:51:22.363Z,4.03
2018-07-10T18:53:51.838Z,4.90
2018-07-10T18:56:19.054Z,4.37
2018-07-10T18:58:46.114Z,4.20
2018-07-10T19:01:19.189Z,4.60
2018-07-10T19:03:44.809Z,4.23
2018-07-10T19:06:11.961Z,4.23
2018-07-10T19:08:39.584Z,3.87
2018-07-10T19:11:06.799Z,4.77
2018-07-10T19:13:34.720Z,5.00
2018-07-10T19:16:01.849Z,4.73
2018-07-10T19:18:30.658Z,5.10
2018-07-10T19:20:58.651Z,4.30
2018-07-10T19:23:27.215Z,3.80
2018-07-10T19:25:56.597Z,3.93
2018-07-10T19:28:27.856Z,3.47
2018-07-10T19:33:26.668Z,3.60
2018-07-10T19:35:54.391Z,3.57
2018-07-10T19:38:22.716Z,3.43
2018-07-10T19:40:49.236Z,3.27
2018-07-10T19:43:16.571Z,3.57
2018-07-10T19:45:47.082Z,3.63
2018-07-10T19:53:22.902Z,3.35
2018-07-10T19:58:30.555Z,3.67
2018-07-10T20:00:57.801Z,3.57
2018-07-10T20:03:25.449Z,3.70
2018-07-10T20:05:53.712Z,3.27
2018-07-10T20:08:20.779Z,3.50
2018-07-10T20:13:31.441Z,3.53
2018-07-10T20:15:58.692Z,3.50
2018-07-10T20:21:04.340Z,3.97
2018-07-10T20:23:31.316Z,3.90
2018-07-10T20:25:59.364Z,4.00
2018-07-10T20:28:26.605Z,4.13
2018-07-10T20:30:53.589Z,4.00
2018-07-10T20:33:20.602Z,3.60
2018-07-10T20:35:47.687Z,3.90
2018-07-10T20:40:54.841Z,4.45
2018-07-10T20:43:21.880Z,4.67
2018-07-10T20:45:48.960Z,4.30
2018-07-10T20:48:15.958Z,4.30
2018-07-10T20:50:42.976Z,3.97
2018-07-10T20:53:10.044Z,4.10
2018-07-10T20:55:37.088Z,3.93
2018-07-10T20:58:04.097Z,4.30
2018-07-10T21:00:31.125Z,3.67
2018-07-10T21:02:58.257Z,4.27
2018-07-10T21:05:25.974Z,3.53
2018-07-10T21:07:52.987Z,3.93
2018-07-10T21:10:20.056Z,3.50
2018-07-10T21:12:47.184Z,3.87
2018-07-10T21:15:14.179Z,3.73
2018-07-10T21:17:41.246Z,4.13
2018-07-10T21:22:46.665Z,4.50
2018-07-10T21:25:13.673Z,4.30
2018-07-10T21:27:40.673Z,3.60
2018-07-10T21:30:10.974Z,3.90
2018-07-10T21:32:37.804Z,4.60
2018-07-10T21:35:07.722Z,4.33
2018-07-10T21:40:16.245Z,4.00
2018-07-10T21:42:43.368Z,4.13
2018-07-10T21:45:14.624Z,5.03
2018-07-10T21:47:39.977Z,4.60
2018-07-10T21:50:06.882Z,4.80
2018-07-10T21:52:34.090Z,4.00
2018-07-10T21:55:02.878Z,3.70
2018-07-10T21:57:30.035Z,3.37
2018-07-10T21:59:57.042Z,4.73
2018-07-10T22:02:24.045Z,4.70
2018-07-10T22:04:51.101Z,4.33
2018-07-10T22:07:18.098Z,4.40
2018-07-10T22:09:45.128Z,4.30
2018-07-10T22:12:13.195Z,3.63
2018-07-10T22:14:40.230Z,3.97
2018-07-10T22:17:07.241Z,3.87
2018-07-10T22:19:34.332Z,3.40
2018-07-10T22:22:01.315Z,4.10
2018-07-10T22:24:28.316Z,3.50
2018-07-10T22:26:56.005Z,4.30
2018-07-10T22:29:23.936Z,3.93
2018-07-10T22:34:29.479Z,4.47
2018-07-10T22:39:37.632Z,6.05
2018-07-10T22:42:04.638Z,4.43
2018-07-10T22:44:31.641Z,4.43
2018-07-10T22:46:59.708Z,4.17
2018-07-10T22:49:27.101Z,4.87
2018-07-10T22:51:54.104Z,4.00
2018-07-10T22:54:21.174Z,4.37
2018-07-10T22:56:48.186Z,4.17
2018-07-10T22:59:15.222Z,5.90
2018-07-10T23:01:42.337Z,5.23
2018-07-10T23:04:09.334Z,5.13
2018-07-10T23:06:36.336Z,4.83
2018-07-10T23:09:03.472Z,4.87
2018-07-10T23:11:30.497Z,4.60
2018-07-10T23:13:57.581Z,4.33
2018-07-10T23:16:24.630Z,5.53
2018-07-10T23:18:51.636Z,5.97
2018-07-10T23:21:18.757Z,4.70
2018-07-10T23:23:45.820Z,4.03
2018-07-10T23:26:12.843Z,4.73
2018-07-10T23:28:39.848Z,5.00
2018-07-10T23:31:06.899Z,5.33
2018-07-10T23:33:33.922Z,4.90
2018-07-10T23:36:01.799Z,4.33
2018-07-10T23:41:09.344Z,6.32
2018-07-10T23:43:36.379Z,5.33
2018-07-10T23:46:04.209Z,5.87
2018-07-10T23:51:09.744Z,6.15
2018-07-10T23:53:36.743Z,5.50
2018-07-10T23:56:03.737Z,6.00
2018-07-10T23:58:30.865Z,5.83
